Time;durP1;ratioP1;P1;durP2;ratioP2;P2;SDS_P1;SDS_P2;PMS_P1;PMS_P2;Temp;Humidity;BMP_temperature;BMP_pressure;BME280_temperature;BME280_humidity;BME280_pressure;Samples;Min_cycle;Max_cycle;Signal;HPM_P1;HPM_P2
2021/04/12 00:01:51;;;;;;;13.00;7.18;;;;;;;9.90;42.89;95298.72;2991807;39;20183;-87
2021/04/12 00:04:02;;;;;;;13.77;7.50;;;;;;;9.88;43.21;95296.25;2987760;39;20056;-85
2021/04/12 00:06:10;;;;;;;10.30;6.50;;;;;;;9.87;43.37;95293.75;2990418;39;20045;-83
2021/04/12 00:08:47;;;;;;;11.25;6.15;;;;;;;9.88;43.13;95295.44;2979156;40;20092;-85
2021/04/12 00:10:57;;;;;;;9.95;6.00;;;;;;;9.83;42.74;95293.22;2978341;39;20315;-84
2021/04/12 00:13:30;;;;;;;13.82;6.53;;;;;;;9.84;43.59;95295.69;2991880;39;20460;-82
2021/04/12 00:15:43;;;;;;;13.80;6.82;;;;;;;9.83;43.42;95294.06;2984137;39;20064;-84
2021/04/12 00:17:46;;;;;;;11.07;7.03;;;;;;;9.80;43.59;95293.50;2985829;39;20050;-83
2021/04/12 00:19:55;;;;;;;14.40;6.72;;;;;;;9.82;43.76;95291.56;2983596;39;20189;-85
2021/04/12 00:22:15;;;;;;;12.20;6.78;;;;;;;9.81;43.10;95295.16;2992405;39;20063;-82
2021/04/12 00:24:27;;;;;;;13.77;6.68;;;;;;;9.78;43.72;95298.84;2986219;39;20034;-86
2021/04/12 00:26:49;;;;;;;14.43;6.93;;;;;;;9.78;43.27;95293.63;2991392;39;20062;-83
2021/04/12 00:28:53;;;;;;;16.15;7.20;;;;;;;9.75;43.02;95298.34;2994123;39;20577;-73
2021/04/12 00:31:03;;;;;;;14.38;7.40;;;;;;;9.71;43.67;95295.16;2983462;39;20417;-70
2021/04/12 00:33:11;;;;;;;10.65;7.03;;;;;;;9.75;44.12;95300.94;2982765;39;20059;-71
2021/04/12 00:35:25;;;;;;;12.23;7.53;;;;;;;9.78;43.58;95298.84;2970984;39;20051;-71
2021/04/12 00:37:50;;;;;;;16.48;7.43;;;;;;;9.79;43.75;95292.69;2984387;39;20059;-71
2021/04/12 00:40:14;;;;;;;22.15;6.97;;;;;;;9.81;43.78;95290.75;2993244;39;20341;-70
2021/04/12 00:42:34;;;;;;;13.20;7.35;;;;;;;9.80;43.53;95291.69;2992531;39;20055;-72
2021/04/12 00:44:47;;;;;;;13.10;7.47;;;;;;;9.79;43.30;95291.84;2985921;39;20075;-72
2021/04/12 00:46:58;;;;;;;12.87;7.23;;;;;;;9.78;43.87;95293.63;2989651;39;20051;-73
2021/04/12 00:49:03;;;;;;;14.18;7.45;;;;;;;9.81;43.70;95295.16;2990151;39;20038;-73
2021/04/12 00:51:27;;;;;;;12.90;7.40;;;;;;;9.82;43.25;95288.94;2981685;39;20380;-71
2021/04/12 00:53:31;;;;;;;15.45;7.28;;;;;;;9.73;43.67;95285.38;2993333;39;20314;-71
2021/04/12 00:55:36;;;;;;;12.93;7.70;;;;;;;9.69;43.86;95285.81;2992410;39;20078;-71
2021/04/12 00:57:51;;;;;;;13.75;7.57;;;;;;;9.63;43.82;95281.94;2984490;39;22129;-72
2021/04/12 00:59:58;;;;;;;18.95;7.47;;;;;;;9.66;44.63;95286.91;2977187;39;20059;-72
2021/04/12 01:02:06;;;;;;;12.27;7.35;;;;;;;9.58;43.95;95289.38;2989346;39;20054;-71
2021/04/12 01:04:42;;;;;;;11.77;7.00;;;;;;;9.35;44.47;95291.44;2984678;39;20263;-71
2021/04/12 01:06:49;;;;;;;14.73;7.43;;;;;;;9.30;44.61;95289.25;2981643;39;20069;-71
2021/04/12 01:09:05;;;;;;;14.93;7.43;;;;;;;9.28;45.12;95283.31;2990409;39;20051;-72
2021/04/12 01:11:25;;;;;;;10.93;6.45;;;;;;;9.35;44.83;95284.41;2984923;39;20067;-72
2021/04/12 01:13:39;;;;;;;14.52;6.80;;;;;;;9.45;44.31;95278.38;2992616;39;20312;-73
2021/04/12 01:15:46;;;;;;;11.85;6.93;;;;;;;9.50;44.43;95274.38;2998222;39;20083;-72
2021/04/12 01:18:37;;;;;;;11.52;6.80;;;;;;;9.60;44.32;95272.59;2992788;39;20055;-71
2021/04/12 01:21:03;;;;;;;11.88;7.05;;;;;;;9.69;44.36;95275.34;2977577;39;20057;-72
2021/04/12 01:23:16;;;;;;;9.95;6.53;;;;;;;9.75;44.14;95275.59;2993186;39;20432;-72
2021/04/12 01:25:42;;;;;;;12.73;6.65;;;;;;;9.82;43.20;95281.91;2982434;39;20091;-71
2021/04/12 01:28:01;;;;;;;14.30;7.00;;;;;;;9.86;43.45;95281.66;2993199;39;20062;-71
2021/04/12 01:30:36;;;;;;;10.07;6.60;;;;;;;9.82;43.55;95276.69;2983762;39;20118;-72
2021/04/12 01:33:24;;;;;;;9.88;6.32;;;;;;;9.78;43.79;95274.50;2985869;39;20073;-72
2021/04/12 01:36:03;;;;;;;13.55;7.05;;;;;;;9.75;43.93;95270.38;2989561;39;20143;-71
2021/04/12 01:38:39;;;;;;;11.40;6.70;;;;;;;9.73;43.96;95274.09;2990370;39;20113;-71
2021/04/12 01:40:46;;;;;;;13.13;6.75;;;;;;;9.56;44.34;95284.28;2982340;39;20088;-71
2021/04/12 01:43:20;;;;;;;12.20;6.10;;;;;;;9.47;45.03;95289.53;2997402;39;20093;-83
2021/04/12 01:45:24;;;;;;;12.98;6.68;;;;;;;9.47;44.05;95277.28;2993360;39;20321;-83
2021/04/12 01:47:38;;;;;;;12.73;6.20;;;;;;;9.48;45.25;95278.09;3004112;39;20071;-83
2021/04/12 01:49:47;;;;;;;11.10;6.10;;;;;;;9.44;44.47;95277.53;2981397;39;20059;-85
2021/04/12 01:52:03;;;;;;;10.65;7.05;;;;;;;9.39;45.40;95280.56;2989937;39;20107;-85
2021/04/12 01:54:16;;;;;;;10.98;6.43;;;;;;;9.16;45.35;95280.03;2987620;39;20421;-82
2021/04/12 01:56:45;;;;;;;13.02;7.07;;;;;;;8.42;47.36;95284.78;2985887;39;20087;-82
2021/04/12 01:59:19;;;;;;;13.38;7.68;;;;;;;8.14;48.66;95287.09;2995402;39;20066;-85
2021/04/12 02:01:26;;;;;;;12.25;6.85;;;;;;;8.04;49.32;95281.81;2978853;39;20115;-84
2021/04/12 02:03:36;;;;;;;10.10;6.38;;;;;;;7.89;48.49;95276.09;2992246;39;20074;-84
2021/04/12 02:06:01;;;;;;;13.02;6.47;;;;;;;7.67;50.12;95282.28;2996132;39;20055;-85
2021/04/12 02:08:15;;;;;;;13.20;5.80;;;;;;;7.54;49.95;95274.63;2985095;39;20083;-86
2021/04/12 02:10:39;;;;;;;11.60;6.90;;;;;;;7.44;50.37;95278.94;2990655;39;20071;-85
2021/04/12 02:12:57;;;;;;;11.52;5.57;;;;;;;7.43;50.23;95285.13;2988182;39;20050;-84
2021/04/12 02:15:16;;;;;;;10.80;5.95;;;;;;;7.43;50.08;95279.09;2987446;39;20345;-86
2021/04/12 02:17:30;;;;;;;14.73;6.70;;;;;;;7.36;50.30;95278.75;2996165;39;20059;-85
2021/04/12 02:19:40;;;;;;;12.40;7.30;;;;;;;7.39;50.21;95284.53;2995517;39;20459;-85
2021/04/12 02:22:10;;;;;;;11.38;6.68;;;;;;;7.34;50.61;95276.28;2991052;39;20107;-84
2021/04/12 02:24:21;;;;;;;13.55;6.90;;;;;;;7.42;50.25;95280.03;2990150;39;20043;-84
2021/04/12 02:26:47;;;;;;;11.68;6.20;;;;;;;7.30;50.41;95264.44;2995370;39;20354;-84
2021/04/12 02:28:58;;;;;;;12.57;7.07;;;;;;;7.49;50.48;95266.38;2995637;39;20051;-85
2021/04/12 02:30:59;;;;;;;13.00;6.43;;;;;;;7.55;50.31;95260.66;2995502;39;20047;-84
2021/04/12 02:33:17;;;;;;;11.35;5.68;;;;;;;7.69;50.32;95267.31;2995287;39;20058;-86
2021/04/12 02:35:30;;;;;;;12.32;6.50;;;;;;;7.33;50.77;95258.16;2985647;39;20070;-70
2021/04/12 02:37:49;;;;;;;12.95;7.00;;;;;;;7.16;51.40;95259.53;2986249;39;20058;-71
2021/04/12 02:40:01;;;;;;;12.13;7.47;;;;;;;7.15;51.88;95263.09;2982713;39;20043;-71
2021/04/12 02:42:26;;;;;;;11.43;6.30;;;;;;;7.23;51.88;95255.47;2977591;39;20398;-73
2021/04/12 02:44:52;;;;;;;17.80;6.82;;;;;;;7.41;51.50;95253.13;2987744;39;20082;-72
2021/04/12 02:47:01;;;;;;;12.45;6.40;;;;;;;7.34;51.99;95252.00;2983530;39;20043;-71
2021/04/12 02:49:08;;;;;;;11.23;6.40;;;;;;;7.55;51.27;95250.22;2976888;39;20055;-71
2021/04/12 02:51:28;;;;;;;17.58;6.43;;;;;;;7.83;50.48;95247.94;2976535;39;20091;-72
2021/04/12 02:53:54;;;;;;;10.82;6.30;;;;;;;7.87;50.29;95249.34;2991856;39;20071;-71
2021/04/12 02:56:22;;;;;;;15.57;6.22;;;;;;;7.87;50.65;95254.56;2991062;39;20069;-71
2021/04/12 02:59:01;;;;;;;11.15;6.80;;;;;;;7.62;51.13;95250.53;2989002;39;20078;-71
2021/04/12 03:01:07;;;;;;;12.05;6.10;;;;;;;7.77;50.87;95253.66;2987329;39;20051;-71
2021/04/12 03:03:23;;;;;;;11.32;6.80;;;;;;;7.80;50.75;95254.22;2975061;39;20329;-72
2021/04/12 03:05:43;;;;;;;14.70;6.68;;;;;;;7.87;50.54;95249.34;2992372;39;20058;-71
2021/04/12 03:08:21;;;;;;;10.85;6.30;;;;;;;7.48;51.47;95251.66;2985665;39;20050;-71
2021/04/12 03:11:04;;;;;;;9.40;5.80;;;;;;;7.24;52.39;95253.69;2988568;39;20075;-72
2021/04/12 03:13:05;;;;;;;11.55;6.32;;;;;;;7.23;51.96;95250.28;2976016;39;20136;-71
2021/04/12 03:15:28;;;;;;;10.32;6.25;;;;;;;7.14;51.76;95254.44;2992016;39;20320;-71
2021/04/12 03:17:29;;;;;;;12.20;6.97;;;;;;;7.21;51.50;95257.38;2992884;39;20082;-70
2021/04/12 03:19:58;;;;;;;15.95;6.72;;;;;;;6.98;51.90;95256.63;2995148;39;20131;-84
2021/04/12 03:22:34;;;;;;;10.80;6.88;;;;;;;6.96;52.32;95258.53;2996605;39;20047;-87
2021/04/12 03:24:46;;;;;;;9.15;5.82;;;;;;;7.17;51.61;95250.75;2985885;39;20055;-84
2021/04/12 03:27:13;;;;;;;9.65;6.00;;;;;;;7.25;51.25;95257.94;2985750;39;20054;-85
2021/04/12 03:29:47;;;;;;;12.90;6.72;;;;;;;7.05;51.45;95249.97;2973368;39;20055;-85
2021/04/12 03:32:11;;;;;;;12.05;6.00;;;;;;;7.13;51.34;95263.19;2987464;39;20036;-86
2021/04/12 03:34:26;;;;;;;10.00;6.30;;;;;;;7.10;51.26;95257.44;2980884;39;20313;-84
2021/04/12 03:36:39;;;;;;;8.90;5.45;;;;;;;6.88;52.52;95253.09;2987146;39;20076;-83
2021/04/12 03:39:04;;;;;;;11.57;6.97;;;;;;;6.88;52.30;95248.75;2996876;39;20130;-84
2021/04/12 03:41:16;;;;;;;11.13;6.32;;;;;;;7.05;52.53;95254.34;2974284;40;20080;-84
2021/04/12 03:43:31;;;;;;;13.65;7.32;;;;;;;7.01;52.28;95251.16;2997384;39;20427;-85
2021/04/12 03:46:10;;;;;;;10.63;6.63;;;;;;;7.05;52.26;95255.19;2986637;39;20056;-84
2021/04/12 03:48:17;;;;;;;13.38;7.20;;;;;;;7.07;52.31;95255.06;2992861;39;20059;-85
2021/04/12 03:50:40;;;;;;;12.40;6.97;;;;;;;7.02;52.87;95250.22;2987119;39;20052;-84
2021/04/12 03:53:16;;;;;;;10.88;6.72;;;;;;;7.09;52.31;95248.75;2996533;39;20315;-85
2021/04/12 03:55:38;;;;;;;11.55;6.70;;;;;;;6.95;53.11;95254.28;3003419;39;20058;-84
2021/04/12 03:58:00;;;;;;;10.65;6.15;;;;;;;6.87;53.18;95244.47;3006020;39;20034;-84
2021/04/12 04:00:14;;;;;;;13.43;6.72;;;;;;;6.86;53.34;95248.03;3003631;39;20080;-86
2021/04/12 04:02:32;;;;;;;11.00;6.22;;;;;;;7.02;53.24;95245.00;2999954;39;20422;-83
2021/04/12 04:04:39;;;;;;;11.32;6.45;;;;;;;7.03;52.92;95251.88;2979011;39;20052;-84
2021/04/12 04:07:05;;;;;;;11.20;6.25;;;;;;;6.97;52.88;95242.78;2997543;39;20456;-84
2021/04/12 04:09:31;;;;;;;10.73;6.35;;;;;;;6.83;53.36;95243.06;2997026;39;20047;-85
2021/04/12 04:11:53;;;;;;;10.48;6.45;;;;;;;6.81;53.28;95244.94;2988443;39;20103;-85
2021/04/12 04:14:22;;;;;;;10.95;7.07;;;;;;;6.90;52.59;95239.00;2990086;39;20055;-83
2021/04/12 04:16:38;;;;;;;13.93;7.20;;;;;;;7.14;52.53;95238.81;2994386;39;20062;-83
2021/04/12 04:19:17;;;;;;;12.50;7.95;;;;;;;7.16;51.82;95234.31;2991816;39;20047;-85
2021/04/12 04:21:18;;;;;;;12.35;7.15;;;;;;;7.14;51.61;95241.41;2993773;39;20083;-87
2021/04/12 04:23:38;;;;;;;14.75;8.35;;;;;;;7.29;51.78;95244.56;2986938;39;20054;-86
2021/04/12 04:25:51;;;;;;;12.65;8.23;;;;;;;7.42;51.66;95243.53;2996731;39;20400;-84
2021/04/12 04:28:05;;;;;;;14.07;7.20;;;;;;;7.52;51.43;95239.22;2996505;39;20055;-88
2021/04/12 04:30:09;;;;;;;11.88;7.95;;;;;;;7.63;51.19;95251.38;2996843;39;20035;-86
2021/04/12 04:32:13;;;;;;;;;;;;;;;7.80;50.88;95245.56;2987498;39;20042;-84
2021/04/12 04:34:23;;;;;;;15.18;8.57;;;;;;;7.96;50.27;95237.31;2996617;39;19931;-85
2021/04/12 04:36:40;;;;;;;14.35;7.18;;;;;;;8.12;49.47;95240.25;2996966;39;20400;-86
2021/04/12 04:39:04;;;;;;;11.13;7.00;;;;;;;8.27;49.16;95232.88;2986428;39;20051;-72
2021/04/12 04:41:29;;;;;;;13.45;7.68;;;;;;;8.40;48.80;95233.50;2978215;39;20277;-70
2021/04/12 04:44:13;;;;;;;13.73;7.90;;;;;;;8.54;48.66;95237.56;2991371;39;20043;-73
2021/04/12 04:46:34;;;;;;;11.68;7.10;;;;;;;8.65;48.41;95234.00;2985547;39;20507;-71
2021/04/12 04:48:41;;;;;;;12.13;6.88;;;;;;;8.73;48.25;95238.53;2991106;39;20052;-72
2021/04/12 04:51:00;;;;;;;14.80;7.15;;;;;;;8.80;47.92;95239.66;2989189;39;20059;-72
2021/04/12 04:53:20;;;;;;;9.55;6.65;;;;;;;8.84;47.75;95238.44;2989602;39;20069;-72
2021/04/12 04:55:31;;;;;;;11.98;8.07;;;;;;;8.93;47.18;95242.03;2989060;39;20094;-71
2021/04/12 04:57:57;;;;;;;14.40;7.10;;;;;;;8.93;46.83;95240.25;2989542;39;20059;-73
2021/04/12 05:00:07;;;;;;;12.65;7.15;;;;;;;8.97;46.55;95243.38;2990706;39;20050;-69
2021/04/12 05:02:22;;;;;;;13.40;7.15;;;;;;;8.97;46.90;95243.38;2983160;39;20051;-72
2021/04/12 05:04:39;;;;;;;9.88;5.65;;;;;;;9.00;46.11;95243.13;2989008;39;20404;-72
2021/04/12 05:07:11;;;;;;;14.18;6.10;;;;;;;9.01;46.42;95250.84;2988821;39;20348;-72
2021/04/12 05:09:40;;;;;;;11.73;7.05;;;;;;;9.00;46.10;95251.78;2991209;39;20075;-71
2021/04/12 05:12:01;;;;;;;12.93;7.05;;;;;;;8.98;46.64;95255.50;2992194;39;20042;-73
2021/04/12 05:14:08;;;;;;;13.57;6.03;;;;;;;8.93;46.37;95253.31;2990435;39;20342;-72
2021/04/12 05:16:43;;;;;;;10.48;6.10;;;;;;;8.90;45.84;95250.13;2989397;39;20047;-70
2021/04/12 05:18:55;;;;;;;9.70;5.80;;;;;;;8.67;46.91;95241.69;2974923;39;20055;-76
2021/04/12 05:21:05;;;;;;;14.00;5.82;;;;;;;8.66;46.86;95245.28;2988437;39;20058;-74
2021/04/12 05:23:21;;;;;;;11.73;6.45;;;;;;;8.78;46.01;95237.19;2983157;39;20440;-73
2021/04/12 05:25:31;;;;;;;12.52;6.03;;;;;;;8.87;46.08;95238.16;2974640;39;20072;-73
2021/04/12 05:27:56;;;;;;;13.60;5.57;;;;;;;8.96;45.76;95241.75;2989425;39;20050;-73
2021/04/12 05:30:16;;;;;;;11.52;6.35;;;;;;;9.10;45.36;95237.91;2983626;39;20043;-73
2021/04/12 05:32:27;;;;;;;10.55;5.88;;;;;;;9.14;45.01;95236.66;2983896;39;20464;-72
2021/04/12 05:34:51;;;;;;;8.20;4.93;;;;;;;9.23;44.26;95238.47;2992253;39;20051;-73
2021/04/12 05:37:30;;;;;;;9.15;4.97;;;;;;;9.30;44.98;95234.34;2986640;39;20419;-75
2021/04/12 05:39:42;;;;;;;9.80;6.55;;;;;;;9.34;44.62;95230.50;2936977;40;20058;-74
2021/04/12 05:42:02;;;;;;;11.45;5.63;;;;;;;9.16;44.84;95232.13;2982033;39;20051;-74
2021/04/12 05:44:12;;;;;;;9.25;5.13;;;;;;;8.73;44.94;95231.56;2991866;39;20323;-74
2021/04/12 05:46:41;;;;;;;8.13;4.78;;;;;;;8.55;45.99;95227.94;2994532;39;20083;-86
2021/04/12 05:49:12;;;;;;;8.65;5.35;;;;;;;8.31;47.11;95226.44;2990239;39;20036;-85
2021/04/12 05:51:25;;;;;;;9.32;5.57;;;;;;;8.47;47.02;95228.56;2983641;39;20064;-85
2021/04/12 05:53:35;;;;;;;13.18;6.45;;;;;;;8.68;46.45;95231.09;2988402;39;20109;-85
2021/04/12 05:55:55;;;;;;;11.18;5.07;;;;;;;8.89;45.78;95232.81;2984711;39;20059;-72
2021/04/12 05:58:30;;;;;;;10.02;5.45;;;;;;;8.97;45.50;95238.16;2979820;39;20051;-72
2021/04/12 06:00:58;;;;;;;10.48;5.80;;;;;;;8.87;45.71;95238.16;2978394;39;20468;-74
2021/04/12 06:03:09;;;;;;;9.63;5.60;;;;;;;9.02;46.16;95234.19;2983183;39;20074;-71
2021/04/12 06:05:25;;;;;;;19.13;6.10;;;;;;;9.19;45.32;95231.88;2982197;39;20060;-72
2021/04/12 06:07:45;;;;;;;13.80;7.03;;;;;;;9.35;45.34;95234.75;2983740;39;20174;-72
2021/04/12 06:10:25;;;;;;;13.85;6.88;;;;;;;9.27;45.60;95237.25;2982168;39;20115;-73
2021/04/12 06:12:38;;;;;;;13.52;7.65;;;;;;;9.17;45.48;95239.84;2977986;39;20051;-72
2021/04/12 06:14:45;;;;;;;22.63;7.13;;;;;;;9.11;45.62;95242.19;2984224;39;20047;-73
2021/04/12 06:17:05;;;;;;;17.02;7.85;;;;;;;9.18;45.73;95222.38;2983759;39;20052;-71
2021/04/12 06:19:28;;;;;;;14.38;7.82;;;;;;;9.09;45.83;95225.81;2983625;39;20450;-72
2021/04/12 06:21:51;;;;;;;13.70;7.47;;;;;;;9.16;45.52;95232.13;2987158;39;20056;-86
2021/04/12 06:23:58;;;;;;;10.43;7.32;;;;;;;9.00;46.20;95233.50;2988597;39;20116;-87
2021/04/12 06:26:23;;;;;;;12.40;7.10;;;;;;;9.16;45.81;95232.97;2990383;39;20277;-86
2021/04/12 06:28:46;;;;;;;14.32;6.43;;;;;;;9.35;45.16;95239.97;2992284;39;20038;-87
2021/04/12 06:31:31;;;;;;;12.45;7.68;;;;;;;9.14;45.89;95234.06;2980886;39;20035;-87
2021/04/12 06:33:51;;;;;;;16.60;7.25;;;;;;;9.32;45.70;95244.66;2990609;39;20062;-87
2021/04/12 06:36:17;;;;;;;14.88;8.07;;;;;;;9.58;45.02;95242.31;2982826;39;20341;-87
2021/04/12 06:38:24;;;;;;;15.95;6.72;;;;;;;9.82;44.45;95244.47;2986939;39;20035;-86
2021/04/12 06:40:34;;;;;;;17.75;7.15;;;;;;;10.05;43.74;95234.50;2976621;39;20071;-85
2021/04/12 06:42:44;;;;;;;10.45;6.20;;;;;;;10.25;43.15;95230.00;2979444;39;20389;-87
2021/04/12 06:45:04;;;;;;;11.25;6.68;;;;;;;10.42;43.12;95231.06;2983016;39;20040;-86
2021/04/12 06:47:43;;;;;;;13.45;6.85;;;;;;;10.59;42.85;95234.72;2987553;39;20036;-86
2021/04/12 06:49:47;;;;;;;10.90;6.93;;;;;;;10.78;41.76;95236.41;2983394;39;20073;-87
2021/04/12 06:52:26;;;;;;;11.10;7.22;;;;;;;10.98;41.60;95224.81;2987855;39;20055;-90
2021/04/12 06:54:49;;;;;;;17.05;7.70;;;;;;;11.16;41.34;95219.56;2989108;39;20076;-89
2021/04/12 06:57:24;;;;;;;12.88;7.35;;;;;;;11.34;41.24;95224.84;2990628;39;20047;-87
2021/04/12 06:59:49;;;;;;;17.45;7.93;;;;;;;11.38;41.07;95233.22;2990578;39;20051;-88
2021/04/12 07:02:10;;;;;;;15.70;8.68;;;;;;;11.40;40.85;95228.63;2988041;39;20072;-86
2021/04/12 07:04:33;;;;;;;16.90;8.73;;;;;;;11.39;40.71;95229.63;2990186;39;20043;-85
2021/04/12 07:06:53;;;;;;;11.75;7.88;;;;;;;11.43;40.66;95223.94;2992690;39;20052;-72
2021/04/12 07:09:23;;;;;;;12.43;7.47;;;;;;;11.41;40.67;95225.88;2982909;39;20063;-71
2021/04/12 07:11:53;;;;;;;13.20;7.75;;;;;;;11.45;40.81;95221.16;2980899;39;20063;-72
2021/04/12 07:14:28;;;;;;;14.18;7.53;;;;;;;11.71;40.31;95223.00;2961602;39;20047;-73
2021/04/12 07:17:23;;;;;;;10.70;6.93;;;;;;;11.24;41.20;95226.72;2983975;39;20106;-74
2021/04/12 07:19:43;;;;;;;20.15;10.43;;;;;;;10.75;41.79;95221.78;2940609;40;20097;-72
2021/04/12 07:22:08;;;;;;;14.82;9.23;;;;;;;10.92;41.44;95228.03;2971280;39;20469;-73
2021/04/12 07:24:21;;;;;;;14.35;9.00;;;;;;;11.06;41.36;95222.28;2973418;39;20048;-72
2021/04/12 07:26:27;;;;;;;14.10;7.85;;;;;;;11.38;41.20;95220.09;2974889;39;20071;-73
2021/04/12 07:28:40;;;;;;;15.00;8.70;;;;;;;11.80;41.00;95228.13;2981187;39;20038;-72
2021/04/12 07:30:44;;;;;;;11.85;7.68;;;;;;;12.18;40.34;95223.50;2975517;39;20248;-74
2021/04/12 07:33:07;;;;;;;14.68;8.38;;;;;;;12.41;39.52;95209.78;2978363;39;20132;-73
2021/04/12 07:35:51;;;;;;;17.83;8.15;;;;;;;12.68;39.56;95201.69;2978798;39;20056;-87
2021/04/12 07:38:30;;;;;;;11.93;7.38;;;;;;;12.89;38.95;95201.25;2976915;39;20052;-87
2021/04/12 07:40:56;;;;;;;14.10;7.38;;;;;;;13.10;38.27;95203.44;2986963;39;20052;-74
2021/04/12 07:43:14;;;;;;;12.82;7.80;;;;;;;13.28;37.56;95197.22;2982872;39;20321;-72
2021/04/12 07:45:17;;;;;;;19.17;8.68;;;;;;;12.94;37.89;95195.50;2984971;39;20587;-73
2021/04/12 07:47:30;;;;;;;;;;;;;;;12.56;38.67;95202.97;2982649;39;20071;-72
2021/04/12 07:49:50;;;;;;;13.73;7.57;;;;;;;12.00;39.62;95197.31;2981999;39;20002;-73
2021/04/12 07:52:39;;;;;;;10.52;6.95;;;;;;;11.85;39.96;95197.03;2983227;39;20329;-73
2021/04/12 07:54:48;;;;;;;11.93;7.63;;;;;;;11.83;40.31;95196.34;2978711;39;20419;-73
2021/04/12 07:57:07;;;;;;;12.90;7.60;;;;;;;12.19;39.76;95180.47;2978452;39;20056;-72
2021/04/12 07:59:42;;;;;;;12.95;6.88;;;;;;;12.57;39.24;95183.59;2982601;39;20394;-71
2021/04/12 08:02:21;;;;;;;14.10;7.80;;;;;;;12.81;38.78;95184.66;2978804;39;20089;-72
2021/04/12 08:04:37;;;;;;;11.73;7.53;;;;;;;12.94;38.40;95184.19;2976514;39;20044;-75
2021/04/12 08:06:44;;;;;;;10.68;7.18;;;;;;;13.19;37.88;95185.88;2983718;39;20048;-71
2021/04/12 08:09:23;;;;;;;11.75;7.28;;;;;;;13.11;37.82;95181.41;2982972;39;20051;-72
2021/04/12 08:11:43;;;;;;;11.00;7.47;;;;;;;13.05;38.66;95181.22;2982353;39;20048;-75
2021/04/12 08:14:09;;;;;;;16.42;7.20;;;;;;;12.67;38.80;95186.09;2974256;39;20441;-72
2021/04/12 08:16:19;;;;;;;13.85;6.43;;;;;;;12.72;38.67;95180.34;2979719;39;20076;-72
2021/04/12 08:18:32;;;;;;;10.50;6.65;;;;;;;12.84;39.05;95177.25;2983879;39;20046;-71
2021/04/12 08:21:14;;;;;;;11.18;7.00;;;;;;;13.21;38.41;95176.00;2977549;39;20047;-73
2021/04/12 08:23:39;;;;;;;11.10;7.00;;;;;;;13.51;37.78;95179.81;2969265;39;20059;-90
2021/04/12 08:26:29;;;;;;;13.15;7.80;;;;;;;13.55;37.85;95174.22;2982140;39;20080;-87
2021/04/12 08:28:55;;;;;;;12.40;7.28;;;;;;;13.26;38.11;95170.25;2952468;40;20041;-89
2021/04/12 08:31:31;;;;;;;10.45;7.35;;;;;;;13.26;38.09;95167.59;2979176;40;20088;-88
2021/04/12 08:33:58;;;;;;;14.35;7.43;;;;;;;13.08;38.71;95163.31;2993745;39;20057;-88
2021/04/12 08:36:30;;;;;;;13.20;7.45;;;;;;;13.08;38.35;95152.00;2981688;39;20459;-86
2021/04/12 08:39:09;;;;;;;15.07;7.80;;;;;;;13.17;38.67;95153.63;2988221;39;20072;-87
2021/04/12 08:41:38;;;;;;;29.70;18.20;;;;;;;13.47;38.07;95157.44;2980522;40;20093;-87
2021/04/12 08:44:17;;;;;;;24.98;14.75;;;;;;;13.85;37.67;95157.72;2991475;39;20059;-87
2021/04/12 08:46:55;;;;;;;13.13;8.05;;;;;;;14.03;36.67;95151.44;2990888;39;20023;-88
2021/04/12 08:49:14;;;;;;;16.67;9.07;;;;;;;13.85;37.06;95149.84;2981218;39;20052;-89
2021/04/12 08:51:53;;;;;;;19.73;9.05;;;;;;;13.70;37.12;95154.97;2984076;39;20067;-87
2021/04/12 08:54:06;;;;;;;15.48;7.90;;;;;;;13.39;37.68;95152.19;2988299;39;20072;-87
2021/04/12 08:56:41;;;;;;;11.33;7.63;;;;;;;13.64;37.17;95144.28;2986441;39;20051;-85
2021/04/12 08:59:12;;;;;;;17.65;8.40;;;;;;;13.34;37.75;95146.59;2984545;39;20048;-72
2021/04/12 09:01:30;;;;;;;13.52;8.05;;;;;;;13.45;37.87;95141.00;2966229;39;20068;-74
2021/04/12 09:03:50;;;;;;;11.25;6.97;;;;;;;13.57;37.77;95133.56;2981000;39;20084;-73
2021/04/12 09:06:06;;;;;;;13.90;8.63;;;;;;;13.78;37.84;95129.59;2984163;39;20084;-73
2021/04/12 09:08:26;;;;;;;12.93;7.30;;;;;;;14.01;37.26;95125.25;2983253;39;20099;-74
2021/04/12 09:10:36;;;;;;;13.93;8.82;;;;;;;14.16;36.65;95125.38;2980134;39;20051;-73
2021/04/12 09:12:59;;;;;;;17.23;8.60;;;;;;;14.14;36.60;95119.44;2983593;39;20122;-73
2021/04/12 09:15:22;;;;;;;19.08;7.93;;;;;;;14.05;36.94;95112.56;2976677;39;20052;-73
2021/04/12 09:17:41;;;;;;;13.77;7.07;;;;;;;14.43;36.42;95107.44;2981702;39;20075;-72
2021/04/12 09:20:00;;;;;;;13.95;7.47;;;;;;;14.75;36.17;95114.38;2981365;39;20461;-73
2021/04/12 09:22:23;;;;;;;16.10;8.40;;;;;;;14.81;35.66;95110.22;2983905;39;20338;-74
2021/04/12 09:24:52;;;;;;;11.93;7.72;;;;;;;15.01;35.12;95107.94;2983938;39;20056;-73
2021/04/12 09:27:47;;;;;;;11.90;7.10;;;;;;;15.27;35.19;95100.50;2985485;39;20039;-87
2021/04/12 09:29:54;;;;;;;12.48;7.40;;;;;;;15.60;35.31;95102.03;2945531;40;20073;-89
2021/04/12 09:32:23;;;;;;;16.80;7.57;;;;;;;15.92;34.81;95103.53;2972891;39;20051;-84
2021/04/12 09:34:33;;;;;;;13.45;7.28;;;;;;;15.64;34.44;95098.84;2980807;40;20036;-87
2021/04/12 09:37:03;;;;;;;16.67;7.90;;;;;;;15.14;35.13;95097.63;2979213;39;20059;-88
2021/04/12 09:39:29;;;;;;;14.38;9.20;;;;;;;15.30;34.94;95086.13;2981453;39;20088;-86
2021/04/12 09:41:44;;;;;;;11.93;7.65;;;;;;;15.14;34.81;95093.19;2987245;39;20102;-87
2021/04/12 09:44:00;;;;;;;13.32;7.80;;;;;;;15.35;34.94;95086.38;2995202;39;20055;-88
2021/04/12 09:46:32;;;;;;;9.68;7.38;;;;;;;15.76;34.32;95081.53;2998125;39;20031;-88
2021/04/12 09:48:49;;;;;;;14.82;7.40;;;;;;;16.09;33.97;95078.56;2990901;39;20046;-88
2021/04/12 09:51:27;;;;;;;14.45;8.35;;;;;;;16.24;33.55;95070.63;2980691;39;20076;-86
2021/04/12 09:53:38;;;;;;;12.55;7.85;;;;;;;16.19;33.30;95072.97;2985361;39;20051;-84
2021/04/12 09:56:04;;;;;;;15.23;7.68;;;;;;;16.14;33.24;95070.06;2988334;39;20059;-87
2021/04/12 09:58:43;;;;;;;11.80;7.63;;;;;;;15.96;33.64;95068.63;2983883;39;20107;-87
2021/04/12 10:01:05;;;;;;;10.90;6.65;;;;;;;16.02;33.50;95061.78;2988959;39;20091;-85
2021/04/12 10:03:41;;;;;;;13.48;7.20;;;;;;;16.20;33.40;95057.94;2981692;40;20480;-90
2021/04/12 10:05:49;;;;;;;11.30;7.10;;;;;;;16.32;33.52;95059.09;2985169;39;20046;-87
2021/04/12 10:07:50;;;;;;;9.63;6.30;;;;;;;16.67;33.14;95052.19;2989166;39;20059;-86
2021/04/12 10:09:51;;;;;;;13.27;6.95;;;;;;;16.95;32.73;95051.44;2989714;39;20042;-90
2021/04/12 10:12:02;;;;;;;9.70;6.78;;;;;;;16.58;32.53;95051.47;2991742;39;20080;-85
2021/04/12 10:14:12;;;;;;;11.35;7.90;;;;;;;16.63;32.70;95044.78;2988938;39;20060;-89
2021/04/12 10:16:23;;;;;;;12.38;7.30;;;;;;;16.11;32.87;95049.28;2988561;39;20051;-88
2021/04/12 10:18:27;;;;;;;14.23;7.22;;;;;;;16.06;33.50;95049.03;2992886;39;20048;-87
2021/04/12 10:20:35;;;;;;;11.32;7.45;;;;;;;16.33;33.08;95042.25;2993451;39;20043;-86
2021/04/12 10:22:42;;;;;;;11.77;6.63;;;;;;;16.63;32.57;95035.03;2991095;39;20106;-86
2021/04/12 10:24:59;;;;;;;16.35;8.05;;;;;;;16.58;32.65;95040.06;2989883;39;20032;-89
2021/04/12 10:27:05;;;;;;;26.25;8.00;;;;;;;16.82;32.52;95036.28;2990798;39;20106;-87
2021/04/12 10:29:40;;;;;;;15.25;8.32;;;;;;;17.15;31.97;95027.78;2981454;39;20068;-88
2021/04/12 10:31:49;;;;;;;14.38;7.00;;;;;;;17.50;31.81;95026.00;2987984;39;20028;-85
2021/04/12 10:34:18;;;;;;;11.60;6.75;;;;;;;17.69;31.30;95027.13;2989006;39;20051;-86
2021/04/12 10:36:26;;;;;;;10.30;6.60;;;;;;;17.48;31.47;95024.56;2980609;40;20048;-87
2021/04/12 10:38:30;;;;;;;9.93;6.50;;;;;;;17.55;31.47;95030.72;2985940;39;20099;-86
2021/04/12 10:40:45;;;;;;;15.68;7.38;;;;;;;17.39;31.79;95022.06;2988757;39;20083;-86
2021/04/12 10:43:25;;;;;;;12.23;6.95;;;;;;;17.64;31.55;95020.78;2980470;39;20098;-87
2021/04/12 10:45:32;;;;;;;13.65;6.80;;;;;;;17.86;31.56;95021.56;2987460;39;20124;-89
2021/04/12 10:47:48;;;;;;;10.27;6.53;;;;;;;18.06;31.16;95011.84;2980306;39;20047;-88
2021/04/12 10:50:15;;;;;;;16.33;6.82;;;;;;;18.15;30.97;95012.50;2990862;39;20081;-86
2021/04/12 10:52:24;;;;;;;15.13;6.90;;;;;;;18.15;30.61;95010.66;2980962;39;20050;-75
2021/04/12 10:54:35;;;;;;;11.80;6.75;;;;;;;18.25;30.61;95007.66;2980733;39;20044;-74
2021/04/12 10:56:42;;;;;;;12.25;6.05;;;;;;;18.16;30.64;95000.91;2981008;39;20055;-75
2021/04/12 10:59:18;;;;;;;9.18;6.15;;;;;;;18.00;31.03;94992.28;2986917;39;20063;-88